Dades meteomassalio
Diari Summary for Setembre 8, 2017 Units:  Metric    English   Both
« Previous Day
Next Day »
Diari Semanal Mensual Anual Personalitzat
  Maxima: Minima: Mijana:
Temperatura: 28.3 °C 10.0 °C 19.1 °C
Rosada: 11.2 °C 1.2 °C 8.3 °C
Humitat: 79 % 23 % 53 %
Velocitat del vent: 44.4 km/h 0.0 km/h 7.8 km/h
Racha vent: 44.4 km/h - -
Vent:- - SSW
Pressio: 1019.2 hPa 1010.7 hPa -
Pluja: 0.0 mm    
Historical Graphs
 
 
Tabular Data for Setembre 8, 2017
Time Temperature Dew Point Pressure Wind Wind Speed Wind Gust Humidity Rainfall Rate (Hourly) solar Conditions
00:00 19.4 °C 9.9 °C 1019.2 hPa SSW 31.5 km/h 31.5 km/h 54 % 0.0 mm 0.0 W/m2 CLR
00:05 19.4 °C 9.9 °C 1019.2 hPa SSW 25.9 km/h 25.9 km/h 54 % 0.0 mm 0.0 W/m2 CLR
00:10 19.4 °C 9.9 °C 1019.2 hPa SSW 30.6 km/h 30.6 km/h 54 % 0.0 mm 0.0 W/m2 CLR
00:15 19.4 °C 9.9 °C 1019.2 hPa SW 27.8 km/h 27.8 km/h 54 % 0.0 mm 0.0 W/m2 CLR
00:20 19.4 °C 9.9 °C 1019.2 hPa SSW 27.4 km/h 27.4 km/h 54 % 0.0 mm 0.0 W/m2 CLR
00:25 19.4 °C 9.9 °C 1019.2 hPa SSW 33.3 km/h 33.3 km/h 54 % 0.0 mm 0.0 W/m2 CLR
00:30 19.4 °C 9.9 °C 1018.8 hPa SSW 27.8 km/h 27.8 km/h 54 % 0.0 mm 0.0 W/m2 CLR
00:35 19.4 °C 10.2 °C 1018.8 hPa SSW 38.9 km/h 38.9 km/h 55 % 0.0 mm 0.0 W/m2 CLR
00:40 19.4 °C 10.2 °C 1018.8 hPa South 37.0 km/h 37.0 km/h 55 % 0.0 mm 0.0 W/m2 CLR
00:45 18.9 °C 9.7 °C 1018.8 hPa SSW 31.5 km/h 31.5 km/h 55 % 0.0 mm 0.0 W/m2 CLR
00:50 18.9 °C 9.9 °C 1018.8 hPa SSW 33.3 km/h 33.3 km/h 56 % 0.0 mm 0.0 W/m2 CLR
00:55 18.9 °C 9.9 °C 1018.8 hPa SSW 35.2 km/h 35.2 km/h 56 % 0.0 mm 0.0 W/m2 CLR
01:00 18.9 °C 9.9 °C 1018.8 hPa SW 31.5 km/h 31.5 km/h 56 % 0.0 mm 0.0 W/m2 CLR
01:05 18.9 °C 9.9 °C 1018.8 hPa SW 33.8 km/h 33.8 km/h 56 % 0.0 mm 0.0 W/m2 CLR
01:10 18.9 °C 10.2 °C 1018.8 hPa SW 44.4 km/h 44.4 km/h 57 % 0.0 mm 0.0 W/m2 CLR
01:15 18.9 °C 10.4 °C 1018.8 hPa SSW 31.5 km/h 31.5 km/h 58 % 0.0 mm 0.0 W/m2 CLR
01:20 18.3 °C 9.9 °C 1018.5 hPa SSW 42.6 km/h 42.6 km/h 58 % 0.0 mm 0.0 W/m2 CLR
01:25 18.3 °C 9.9 °C 1018.8 hPa SW 35.4 km/h 35.4 km/h 58 % 0.0 mm 0.0 W/m2 CLR
01:30 18.3 °C 9.9 °C 1018.8 hPa SSW 35.2 km/h 35.2 km/h 58 % 0.0 mm 0.0 W/m2 CLR
01:35 18.3 °C 9.9 °C 1018.8 hPa SSW 31.5 km/h 31.5 km/h 58 % 0.0 mm 0.0 W/m2 CLR
01:40 18.3 °C 10.2 °C 1018.8 hPa SSW 24.1 km/h 24.1 km/h 59 % 0.0 mm 0.0 W/m2 CLR
01:46 18.3 °C 10.2 °C 1018.8 hPa SSW 27.8 km/h 27.8 km/h 59 % 0.0 mm 0.0 W/m2 CLR
01:51 18.3 °C 10.4 °C 1018.8 hPa SW 33.3 km/h 33.3 km/h 60 % 0.0 mm 0.0 W/m2 CLR
01:56 17.8 °C 9.9 °C 1018.8 hPa SW 37.0 km/h 37.0 km/h 60 % 0.0 mm 0.0 W/m2 CLR
02:01 17.8 °C 9.9 °C 1018.8 hPa SSW 31.5 km/h 31.5 km/h 60 % 0.0 mm 0.0 W/m2 CLR
02:11 17.8 °C 10.2 °C 1018.8 hPa SW 27.8 km/h 27.8 km/h 61 % 0.0 mm 0.0 W/m2 CLR
02:16 17.8 °C 10.2 °C 1018.8 hPa SSW 29.0 km/h 29.0 km/h 61 % 0.0 mm 0.0 W/m2 CLR
02:21 17.2 °C 9.6 °C 1018.8 hPa SW 31.5 km/h 31.5 km/h 61 % 0.0 mm 0.0 W/m2 CLR
02:26 17.2 °C 9.6 °C 1018.8 hPa SW 35.2 km/h 35.2 km/h 61 % 0.0 mm 0.0 W/m2 CLR
02:31 17.2 °C 9.6 °C 1018.8 hPa SW 35.2 km/h 35.2 km/h 61 % 0.0 mm 0.0 W/m2 CLR
02:36 17.8 °C 10.2 °C 1018.8 hPa SW 40.7 km/h 40.7 km/h 61 % 0.0 mm 0.0 W/m2 CLR
02:41 17.8 °C 10.2 °C 1018.8 hPa SSW 29.6 km/h 29.6 km/h 61 % 0.0 mm 0.0 W/m2 CLR
02:46 17.2 °C 9.6 °C 1018.8 hPa SW 22.5 km/h 22.5 km/h 61 % 0.0 mm 0.0 W/m2 CLR
02:51 17.2 °C 9.9 °C 1018.8 hPa SW 24.1 km/h 24.1 km/h 62 % 0.0 mm 0.0 W/m2 CLR
02:56 17.2 °C 9.9 °C 1018.8 hPa South 18.5 km/h 18.5 km/h 62 % 0.0 mm 0.0 W/m2 CLR
03:01 17.2 °C 9.9 °C 1018.8 hPa SSW 16.7 km/h 16.7 km/h 62 % 0.0 mm 0.0 W/m2 CLR
03:06 17.2 °C 9.9 °C 1018.8 hPa South 3.7 km/h 5.1 km/h 62 % 0.0 mm 0.0 W/m2 CLR
03:11 16.7 °C 9.3 °C 1018.8 hPa South 11.1 km/h 11.1 km/h 62 % 0.0 mm 0.0 W/m2 CLR
03:16 17.2 °C 9.9 °C 1019.2 hPa SW 12.9 km/h 12.9 km/h 62 % 0.0 mm 0.0 W/m2 CLR
03:21 16.7 °C 9.6 °C 1019.2 hPa SSW 11.1 km/h 11.1 km/h 63 % 0.0 mm 0.0 W/m2 CLR
03:26 16.7 °C 9.6 °C 1019.2 hPa SW 18.5 km/h 18.5 km/h 63 % 0.0 mm 0.0 W/m2 CLR
03:31 16.7 °C 9.6 °C 1019.2 hPa South 13.0 km/h 13.0 km/h 63 % 0.0 mm 0.0 W/m2 CLR
03:36 16.7 °C 9.6 °C 1019.2 hPa SSW 14.8 km/h 14.8 km/h 63 % 0.0 mm 0.0 W/m2 CLR
03:41 16.1 °C 9.1 °C 1019.2 hPa SSW 7.4 km/h 7.4 km/h 63 % 0.0 mm 0.0 W/m2 CLR
03:46 16.1 °C 9.1 °C 1019.2 hPa SSW 16.7 km/h 16.7 km/h 63 % 0.0 mm 0.0 W/m2 CLR
03:51 16.1 °C 9.1 °C 1019.2 hPa SSW 13.0 km/h 13.0 km/h 63 % 0.0 mm 0.0 W/m2 CLR
03:56 16.1 °C 9.1 °C 1018.8 hPa SW 13.0 km/h 13.0 km/h 63 % 0.0 mm 0.0 W/m2 CLR
04:01 15.6 °C 8.8 °C 1018.8 hPa SW 22.2 km/h 22.2 km/h 64 % 0.0 mm 0.0 W/m2 CLR
04:07 16.1 °C 9.3 °C 1018.8 hPa WSW 13.0 km/h 13.0 km/h 64 % 0.0 mm 0.0 W/m2 CLR
04:11 16.1 °C 9.3 °C 1018.8 hPa Calm     64 % 0.0 mm 0.0 W/m2 CLR
04:12 16.1 °C 9.3 °C 1018.8 hPa Calm     64 % 0.0 mm 0.0 W/m2 CLR
04:17 15.6 °C 8.8 °C 1018.8 hPa Calm     64 % 0.0 mm 0.0 W/m2 CLR
04:22 15.0 °C 8.2 °C 1018.8 hPa Calm     64 % 0.0 mm 0.0 W/m2 CLR
04:27 14.4 °C 8.2 °C 1018.8 hPa Calm     66 % 0.0 mm 0.0 W/m2 CLR
04:32 13.9 °C 7.6 °C 1018.8 hPa Calm     66 % 0.0 mm 0.0 W/m2 CLR
04:37 13.3 °C 7.1 °C 1018.8 hPa Calm     66 % 0.0 mm 0.0 W/m2 CLR
04:42 13.3 °C 7.6 °C 1018.8 hPa Calm     68 % 0.0 mm 0.0 W/m2 CLR
04:47 12.8 °C 7.2 °C 1018.8 hPa Calm     69 % 0.0 mm 0.0 W/m2 CLR
04:52 12.8 °C 7.0 °C 1018.8 hPa SW 20.4 km/h 20.4 km/h 68 % 0.0 mm 0.0 W/m2 CLR
04:57 12.2 °C 6.3 °C 1018.8 hPa SSW 9.3 km/h 9.3 km/h 67 % 0.0 mm 0.0 W/m2 CLR
05:02 12.2 °C 6.3 °C 1018.8 hPa Calm     67 % 0.0 mm 0.0 W/m2 CLR
05:07 12.2 °C 6.5 °C 1018.5 hPa South 5.6 km/h 5.6 km/h 68 % 0.0 mm 0.0 W/m2 CLR
05:12 12.8 °C 7.0 °C 1018.5 hPa Calm     68 % 0.0 mm 0.0 W/m2 CLR
05:18 12.8 °C 7.2 °C 1018.5 hPa South 5.6 km/h 5.6 km/h 69 % 0.0 mm 0.0 W/m2 CLR
05:23 12.2 °C 6.7 °C 1018.5 hPa SSE 7.4 km/h 7.4 km/h 69 % 0.0 mm 0.0 W/m2 CLR
05:25 12.2 °C 6.7 °C 1018.5 hPa SSE 8.0 km/h 8.0 km/h 69 % 0.0 mm 0.0 W/m2 CLR
05:29 12.2 °C 6.9 °C 1018.5 hPa SSW 8.0 km/h 8.0 km/h 70 % 0.0 mm 0.0 W/m2 CLR
05:30 12.2 °C 6.9 °C 1018.5 hPa South 11.3 km/h 11.3 km/h 70 % 0.0 mm 0.0 W/m2 CLR
05:35 12.2 °C 6.9 °C 1018.5 hPa South 11.1 km/h 11.1 km/h 70 % 0.0 mm 0.0 W/m2 CLR
05:40 12.2 °C 6.9 °C 1018.5 hPa South 9.3 km/h 9.3 km/h 70 % 0.0 mm 0.0 W/m2 CLR
05:45 12.2 °C 6.9 °C 1018.5 hPa SSE 9.3 km/h 9.3 km/h 70 % 0.0 mm 0.0 W/m2 CLR
05:50 12.2 °C 7.1 °C 1018.5 hPa SSE 5.6 km/h 5.6 km/h 71 % 0.0 mm 0.0 W/m2 CLR
05:55 12.2 °C 7.1 °C 1018.5 hPa South 9.3 km/h 9.3 km/h 71 % 0.0 mm 0.0 W/m2 CLR
06:00 12.2 °C 7.1 °C 1018.5 hPa SSE 9.7 km/h 9.7 km/h 71 % 0.0 mm 0.0 W/m2 CLR
06:05 12.2 °C 7.1 °C 1018.5 hPa South 7.4 km/h 7.4 km/h 71 % 0.0 mm 0.0 W/m2 CLR
06:10 12.8 °C 7.8 °C 1018.5 hPa SSE 14.8 km/h 14.8 km/h 72 % 0.0 mm 0.0 W/m2 CLR
06:15 12.8 °C 8.1 °C 1018.5 hPa SSE 11.3 km/h 11.3 km/h 73 % 0.0 mm 0.0 W/m2 CLR
06:20 12.8 °C 8.3 °C 1018.5 hPa SSE 11.1 km/h 11.1 km/h 74 % 0.0 mm 0.0 W/m2 CLR
06:25 12.2 °C 7.7 °C 1018.5 hPa Calm     74 % 0.0 mm 0.0 W/m2 CLR
06:26 12.2 °C 7.7 °C 1018.5 hPa Calm     74 % 0.0 mm 0.0 W/m2 CLR
06:31 12.2 °C 8.1 °C 1018.5 hPa Calm     76 % 0.0 mm 0.0 W/m2 CLR
06:36 11.7 °C 7.6 °C 1018.5 hPa Calm     76 % 0.0 mm 0.0 W/m2 CLR
06:41 11.7 °C 7.8 °C 1018.5 hPa Calm     77 % 0.0 mm 0.0 W/m2 CLR
06:46 11.1 °C 7.4 °C 1018.5 hPa Calm     78 % 0.0 mm 0.0 W/m2 CLR
06:51 11.1 °C 7.4 °C 1018.5 hPa Calm     78 % 0.0 mm 0.0 W/m2 CLR
06:56 11.1 °C 7.4 °C 1018.5 hPa Calm     78 % 0.0 mm 0.0 W/m2 CLR
07:01 11.1 °C 7.6 °C 1018.5 hPa Calm     79 % 0.0 mm 0.0 W/m2 CLR
07:06 11.1 °C 7.6 °C 1018.2 hPa Calm     79 % 0.0 mm 0.0 W/m2 CLR
07:11 10.6 °C 7.1 °C 1018.5 hPa Calm     79 % 0.0 mm 0.0 W/m2 CLR
07:16 10.6 °C 6.9 °C 1018.2 hPa Calm     78 % 0.0 mm 0.0 W/m2 CLR
07:21 10.0 °C 6.2 °C 1018.2 hPa Calm     77 % 0.0 mm 0.0 W/m2 CLR
07:26 10.0 °C 5.9 °C 1018.5 hPa Calm     76 % 0.0 mm 0.0 W/m2 OVC
07:31 10.6 °C 6.5 °C 1018.5 hPa Calm     76 % 0.0 mm 0.0 W/m2 OVC
07:36 10.6 °C 6.7 °C 1018.2 hPa Calm     77 % 0.0 mm 5.0 W/m2 OVC
07:41 10.6 °C 6.5 °C 1018.5 hPa Calm     76 % 0.0 mm 11.0 W/m2 BKN
07:46 10.6 °C 6.5 °C 1018.5 hPa Calm     76 % 0.0 mm 16.0 W/m2 BKN
07:51 10.6 °C 6.5 °C 1018.2 hPa Calm     76 % 0.0 mm 21.0 W/m2 BKN
07:56 10.6 °C 6.5 °C 1018.5 hPa Calm     76 % 0.0 mm 28.0 W/m2 BKN
08:01 10.6 °C 6.5 °C 1018.2 hPa Calm     76 % 0.0 mm 35.0 W/m2 BKN
08:06 10.6 °C 6.5 °C 1018.2 hPa Calm     76 % 0.0 mm 42.0 W/m2 BKN
08:11 10.6 °C 6.5 °C 1018.2 hPa Calm     76 % 0.0 mm 47.0 W/m2 SCT
08:16 10.6 °C 6.3 °C 1018.2 hPa Calm     75 % 0.0 mm 56.0 W/m2 SCT
08:21 11.1 °C 6.8 °C 1018.2 hPa Calm     75 % 0.0 mm 69.0 W/m2 FEW
08:26 11.7 °C 7.4 °C 1018.2 hPa Calm     75 % 0.0 mm 77.0 W/m2 FEW
08:31 12.2 °C 7.9 °C 1018.2 hPa Calm     75 % 0.0 mm 86.0 W/m2 CLR
08:36 12.2 °C 7.7 °C 1018.5 hPa Calm     74 % 0.0 mm 93.0 W/m2 CLR
08:41 12.8 °C 8.3 °C 1018.5 hPa South 9.3 km/h 9.3 km/h 74 % 0.0 mm 79.0 W/m2 FEW
08:46 13.3 °C 8.8 °C 1018.5 hPa SSW 7.4 km/h 7.4 km/h 74 % 0.0 mm 83.0 W/m2 FEW
08:51 13.3 °C 8.6 °C 1018.5 hPa South 7.4 km/h 7.4 km/h 73 % 0.0 mm 146.0 W/m2 CLR
09:01 14.4 °C 9.7 °C 1018.5 hPa South 5.6 km/h 5.6 km/h 73 % 0.0 mm 178.0 W/m2 CLR
09:06 14.4 °C 9.4 °C 1018.5 hPa South 9.3 km/h 9.3 km/h 72 % 0.0 mm 186.0 W/m2 CLR
09:11 15.0 °C 9.8 °C 1018.5 hPa South 5.6 km/h 5.6 km/h 71 % 0.0 mm 199.0 W/m2 CLR
09:16 15.0 °C 9.8 °C 1018.5 hPa South 9.3 km/h 9.3 km/h 71 % 0.0 mm 213.0 W/m2 CLR
09:21 15.6 °C 10.1 °C 1018.5 hPa South 5.6 km/h 5.6 km/h 70 % 0.0 mm 230.0 W/m2 CLR
09:26 15.6 °C 10.1 °C 1018.5 hPa South 5.6 km/h 5.6 km/h 70 % 0.0 mm 248.0 W/m2 CLR
09:31 16.1 °C 10.6 °C 1018.5 hPa South 5.6 km/h 5.6 km/h 70 % 0.0 mm 267.0 W/m2 CLR
09:36 16.1 °C 10.2 °C 1018.5 hPa South 7.4 km/h 7.4 km/h 68 % 0.0 mm 276.0 W/m2 CLR
09:41 16.1 °C 10.0 °C 1018.5 hPa SW 9.3 km/h 9.3 km/h 67 % 0.0 mm 299.0 W/m2 CLR
09:46 16.7 °C 10.3 °C 1018.5 hPa SSW 11.1 km/h 11.1 km/h 66 % 0.0 mm 320.0 W/m2 CLR
09:51 16.7 °C 10.1 °C 1018.5 hPa SW 5.6 km/h 5.6 km/h 65 % 0.0 mm 327.0 W/m2 CLR
09:52 16.7 °C 10.1 °C 1018.5 hPa SW 5.6 km/h 5.6 km/h 65 % 0.0 mm 327.0 W/m2 CLR
09:57 17.2 °C 10.3 °C 1018.5 hPa South 11.1 km/h 11.1 km/h 64 % 0.0 mm 346.0 W/m2 CLR
10:02 17.2 °C 10.1 °C 1018.5 hPa South 11.1 km/h 11.1 km/h 63 % 0.0 mm 360.0 W/m2 CLR
10:07 17.2 °C 10.3 °C 1018.5 hPa SSW 7.4 km/h 7.4 km/h 64 % 0.0 mm 373.0 W/m2 CLR
10:12 17.8 °C 10.6 °C 1018.5 hPa SSE 13.0 km/h 13.0 km/h 63 % 0.0 mm 385.0 W/m2 CLR
10:17 17.8 °C 10.4 °C 1018.5 hPa SSW 9.3 km/h 9.3 km/h 62 % 0.0 mm 404.0 W/m2 CLR
10:22 17.8 °C 10.2 °C 1018.5 hPa South 5.6 km/h 5.6 km/h 61 % 0.0 mm 424.0 W/m2 CLR
10:27 17.8 °C 9.9 °C 1018.5 hPa SW 7.4 km/h 7.4 km/h 60 % 0.0 mm 446.0 W/m2 CLR
10:32 17.8 °C 9.9 °C 1018.5 hPa SW 13.0 km/h 13.0 km/h 60 % 0.0 mm 454.0 W/m2 CLR
10:37 18.3 °C 10.4 °C 1018.5 hPa SW 16.7 km/h 16.7 km/h 60 % 0.0 mm 473.0 W/m2 CLR
10:42 18.3 °C 10.4 °C 1018.5 hPa SW 13.0 km/h 13.0 km/h 60 % 0.0 mm 485.0 W/m2 CLR
10:47 18.9 °C 10.7 °C 1018.5 hPa WSW 11.1 km/h 11.1 km/h 59 % 0.0 mm 497.0 W/m2 CLR
10:52 18.9 °C 10.7 °C 1018.5 hPa SW 8.0 km/h 8.2 km/h 59 % 0.0 mm 512.0 W/m2 CLR
10:57 18.9 °C 10.4 °C 1018.5 hPa WSW 12.9 km/h 12.9 km/h 58 % 0.0 mm 519.0 W/m2 CLR
11:02 18.9 °C 10.2 °C 1018.5 hPa WSW 3.7 km/h 3.7 km/h 57 % 0.0 mm 533.0 W/m2 CLR
11:07 18.9 °C 9.9 °C 1018.5 hPa Calm     56 % 0.0 mm 541.0 W/m2 CLR
11:12 18.9 °C 9.9 °C 1018.2 hPa SW 8.0 km/h 8.0 km/h 56 % 0.0 mm 554.0 W/m2 CLR
11:17 19.4 °C 10.2 °C 1018.2 hPa WSW 11.1 km/h 11.1 km/h 55 % 0.0 mm 566.0 W/m2 CLR
11:22 19.4 °C 10.2 °C 1018.2 hPa West 3.7 km/h 3.7 km/h 55 % 0.0 mm 577.0 W/m2 CLR
11:27 20.0 °C 10.4 °C 1018.2 hPa Calm     54 % 0.0 mm 589.0 W/m2 CLR
11:32 20.0 °C 10.7 °C 1018.2 hPa WSW 11.3 km/h 11.3 km/h 55 % 0.0 mm 599.0 W/m2 CLR
11:37 20.6 °C 10.9 °C 1018.2 hPa WSW 11.3 km/h 11.3 km/h 54 % 0.0 mm 610.0 W/m2 CLR
11:42 20.6 °C 10.7 °C 1018.2 hPa Calm     53 % 0.0 mm 622.0 W/m2 CLR
11:47 21.1 °C 11.2 °C 1018.2 hPa West 9.3 km/h 9.3 km/h 53 % 0.0 mm 631.0 W/m2 CLR
11:52 21.1 °C 10.9 °C 1018.2 hPa Calm     52 % 0.0 mm 640.0 W/m2 CLR
11:57 21.1 °C 10.6 °C 1018.2 hPa WSW 6.4 km/h 6.4 km/h 51 % 0.0 mm 647.0 W/m2 CLR
12:02 21.7 °C 11.1 °C 1017.8 hPa Calm     51 % 0.0 mm 654.0 W/m2 CLR
12:07 21.7 °C 11.1 °C 1017.8 hPa SW 9.3 km/h 9.3 km/h 51 % 0.0 mm 663.0 W/m2 CLR
12:12 21.7 °C 10.5 °C 1017.8 hPa South 3.7 km/h 3.7 km/h 49 % 0.0 mm 671.0 W/m2 CLR
12:17 21.7 °C 11.1 °C 1017.8 hPa Calm     51 % 0.0 mm 684.0 W/m2 CLR
12:22 21.7 °C 10.8 °C 1017.5 hPa WSW 9.3 km/h 9.3 km/h 50 % 0.0 mm 693.0 W/m2 CLR
12:27 22.2 °C 10.7 °C 1017.5 hPa Calm     48 % 0.0 mm 701.0 W/m2 CLR
12:32 22.2 °C 10.7 °C 1017.5 hPa WSW 6.4 km/h 6.4 km/h 48 % 0.0 mm 708.0 W/m2 CLR
12:37 22.8 °C 11.2 °C 1017.5 hPa Calm     48 % 0.0 mm 715.0 W/m2 CLR
12:42 22.2 °C 10.7 °C 1017.5 hPa WSW 11.1 km/h 11.1 km/h 48 % 0.0 mm 719.0 W/m2 CLR
12:52 22.2 °C 10.4 °C 1017.2 hPa NW 5.6 km/h 5.6 km/h 47 % 0.0 mm 728.0 W/m2 CLR
12:57 22.8 °C 10.6 °C 1017.2 hPa WNW 3.7 km/h 3.7 km/h 46 % 0.0 mm 740.0 W/m2 CLR
13:02 22.8 °C 10.6 °C 1016.8 hPa Calm     46 % 0.0 mm 749.0 W/m2 CLR
13:07 22.8 °C 10.6 °C 1016.8 hPa West 9.3 km/h 9.3 km/h 46 % 0.0 mm 756.0 W/m2 CLR
13:12 22.8 °C 9.9 °C 1016.8 hPa West 4.8 km/h 4.8 km/h 44 % 0.0 mm 756.0 W/m2 CLR
13:17 22.8 °C 9.9 °C 1016.8 hPa Calm     44 % 0.0 mm 761.0 W/m2 CLR
13:22 23.3 °C 10.7 °C 1016.8 hPa West 9.3 km/h 9.3 km/h 45 % 0.0 mm 766.0 W/m2 CLR
13:27 23.9 °C 10.2 °C 1016.8 hPa WNW 13.0 km/h 13.0 km/h 42 % 0.0 mm 770.0 W/m2 CLR
13:32 23.9 °C 10.2 °C 1016.5 hPa NW 9.3 km/h 9.3 km/h 42 % 0.0 mm 772.0 W/m2 CLR
13:37 23.9 °C 10.2 °C 1016.5 hPa West 11.1 km/h 11.1 km/h 42 % 0.0 mm 773.0 W/m2 CLR
13:42 23.9 °C 9.8 °C 1016.5 hPa Calm     41 % 0.0 mm 784.0 W/m2 CLR
13:47 23.9 °C 9.8 °C 1016.5 hPa West 9.3 km/h 9.3 km/h 41 % 0.0 mm 784.0 W/m2 CLR
13:52 23.9 °C 9.4 °C 1016.5 hPa WNW 7.4 km/h 7.4 km/h 40 % 0.0 mm 788.0 W/m2 CLR
13:57 23.9 °C 9.1 °C 1016.5 hPa WNW 5.6 km/h 5.6 km/h 39 % 0.0 mm 788.0 W/m2 CLR
14:02 24.4 °C 9.2 °C 1016.5 hPa Calm     38 % 0.0 mm 791.0 W/m2 CLR
14:07 25.0 °C 9.7 °C 1016.1 hPa WNW 3.7 km/h 3.7 km/h 38 % 0.0 mm 791.0 W/m2 CLR
14:12 24.4 °C 8.8 °C 1016.1 hPa NW 7.4 km/h 7.4 km/h 37 % 0.0 mm 786.0 W/m2 CLR
14:17 24.4 °C 8.0 °C 1016.1 hPa WNW 9.3 km/h 9.3 km/h 35 % 0.0 mm 786.0 W/m2 CLR
14:22 25.0 °C 8.4 °C 1015.8 hPa Calm     35 % 0.0 mm 784.0 W/m2 CLR
14:27 25.0 °C 8.1 °C 1015.8 hPa NW 6.4 km/h 6.4 km/h 34 % 0.0 mm 782.0 W/m2 CLR
14:32 25.0 °C 8.1 °C 1015.8 hPa NW 9.3 km/h 9.3 km/h 34 % 0.0 mm 777.0 W/m2 CLR
14:37 25.6 °C 7.6 °C 1015.8 hPa WSW 1.9 km/h   32 % 0.0 mm 775.0 W/m2 CLR
14:42 25.6 °C 7.2 °C 1015.8 hPa Calm     31 % 0.0 mm 772.0 W/m2 CLR
14:47 26.1 °C 7.7 °C 1015.5 hPa NNW 3.7 km/h   31 % 0.0 mm 772.0 W/m2 CLR
14:52 26.1 °C 7.7 °C 1015.5 hPa Calm     31 % 0.0 mm 765.0 W/m2 CLR
14:57 25.6 °C 8.1 °C 1015.5 hPa Calm     33 % 0.0 mm 759.0 W/m2 CLR
15:02 25.6 °C 7.6 °C 1015.5 hPa North 3.7 km/h 3.7 km/h 32 % 0.0 mm 752.0 W/m2 CLR
15:07 26.1 °C 8.1 °C 1015.1 hPa NW 7.4 km/h 7.4 km/h 32 % 0.0 mm 747.0 W/m2 CLR
15:12 26.1 °C 8.1 °C 1015.1 hPa North 13.0 km/h 13.0 km/h 32 % 0.0 mm 742.0 W/m2 CLR
15:17 25.6 °C 7.6 °C 1015.1 hPa North 3.7 km/h 3.7 km/h 32 % 0.0 mm 735.0 W/m2 CLR
15:22 25.6 °C 7.2 °C 1015.1 hPa North 5.6 km/h 5.6 km/h 31 % 0.0 mm 726.0 W/m2 CLR
15:27 25.6 °C 6.7 °C 1014.8 hPa Calm     30 % 0.0 mm 721.0 W/m2 CLR
15:32 26.7 °C 8.1 °C 1014.8 hPa NNE 8.0 km/h 8.0 km/h 31 % 0.0 mm 712.0 W/m2 CLR
15:38 26.1 °C 7.2 °C 1014.8 hPa NNW 5.6 km/h 5.6 km/h 30 % 0.0 mm 708.0 W/m2 CLR
15:42 26.1 °C 7.2 °C 1014.8 hPa NW 6.4 km/h 6.4 km/h 30 % 0.0 mm 701.0 W/m2 CLR
15:48 26.1 °C 6.7 °C 1014.4 hPa NNW 5.6 km/h 5.6 km/h 29 % 0.0 mm 687.0 W/m2 CLR
15:53 26.7 °C 6.7 °C 1014.4 hPa NE 3.7 km/h 3.7 km/h 28 % 0.0 mm 677.0 W/m2 CLR
15:58 26.7 °C 7.2 °C 1014.4 hPa NNW 14.8 km/h 14.8 km/h 29 % 0.0 mm 670.0 W/m2 CLR
16:03 26.7 °C 6.7 °C 1014.4 hPa NNE 5.6 km/h 5.6 km/h 28 % 0.0 mm 663.0 W/m2 CLR
16:08 26.7 °C 6.7 °C 1014.1 hPa NW 5.6 km/h 5.6 km/h 28 % 0.0 mm 652.0 W/m2 CLR
16:13 26.7 °C 6.1 °C 1014.1 hPa NE 5.6 km/h   27 % 0.0 mm 640.0 W/m2 CLR
16:18 26.7 °C 6.7 °C 1014.1 hPa NNE 5.6 km/h 5.6 km/h 28 % 0.0 mm 631.0 W/m2 CLR
16:23 27.2 °C 7.1 °C 1013.8 hPa NNW 5.6 km/h 5.6 km/h 28 % 0.0 mm 621.0 W/m2 CLR
16:28 27.2 °C 7.1 °C 1013.8 hPa NNE 6.4 km/h 6.4 km/h 28 % 0.0 mm 610.0 W/m2 CLR
16:33 27.2 °C 6.6 °C 1013.8 hPa North 4.8 km/h 4.8 km/h 27 % 0.0 mm 598.0 W/m2 CLR
16:38 27.2 °C 6.6 °C 1013.8 hPa North 5.6 km/h 5.6 km/h 27 % 0.0 mm 585.0 W/m2 CLR
16:43 27.8 °C 7.1 °C 1013.4 hPa NNE 5.6 km/h 5.6 km/h 27 % 0.0 mm 575.0 W/m2 CLR
16:48 27.2 °C 6.1 °C 1013.4 hPa NE 4.8 km/h 4.8 km/h 26 % 0.0 mm 563.0 W/m2 CLR
16:53 27.8 °C 6.5 °C 1013.4 hPa NE 5.6 km/h 5.6 km/h 26 % 0.0 mm 545.0 W/m2 CLR
16:58 27.8 °C 5.9 °C 1013.1 hPa Calm     25 % 0.0 mm 534.0 W/m2 CLR
17:03 27.8 °C 6.5 °C 1013.1 hPa Calm     26 % 0.0 mm 517.0 W/m2 CLR
17:08 27.8 °C 5.9 °C 1013.1 hPa North 1.9 km/h   25 % 0.0 mm 506.0 W/m2 CLR
17:13 27.8 °C 6.5 °C 1013.1 hPa Calm     26 % 0.0 mm 490.0 W/m2 CLR
17:18 27.8 °C 6.5 °C 1013.1 hPa North 5.6 km/h 5.6 km/h 26 % 0.0 mm 480.0 W/m2 CLR
17:23 27.8 °C 6.5 °C 1013.1 hPa Calm     26 % 0.0 mm 462.0 W/m2 CLR
17:28 27.8 °C 6.5 °C 1012.8 hPa Calm     26 % 0.0 mm 448.0 W/m2 CLR
17:33 27.8 °C 5.9 °C 1012.8 hPa North 6.4 km/h 6.4 km/h 25 % 0.0 mm 431.0 W/m2 CLR
17:38 27.8 °C 5.3 °C 1012.8 hPa Calm     24 % 0.0 mm 420.0 W/m2 CLR
17:43 27.8 °C 5.9 °C 1012.8 hPa Calm     25 % 0.0 mm 404.0 W/m2 CLR
17:48 28.3 °C 6.4 °C 1012.4 hPa Calm     25 % 0.0 mm 387.0 W/m2 CLR
17:53 28.3 °C 7.0 °C 1012.4 hPa Calm     26 % 0.0 mm 367.0 W/m2 CLR
17:58 27.8 °C 5.9 °C 1012.4 hPa Calm     25 % 0.0 mm 352.0 W/m2 CLR
18:03 28.3 °C 6.4 °C 1012.4 hPa Calm     25 % 0.0 mm 334.0 W/m2 CLR
18:08 27.8 °C 5.9 °C 1012.4 hPa Calm     25 % 0.0 mm 320.0 W/m2 CLR
18:13 27.8 °C 5.9 °C 1012.4 hPa Calm     25 % 0.0 mm 306.0 W/m2 CLR
18:18 27.2 °C 4.9 °C 1012.4 hPa ENE 7.4 km/h 7.4 km/h 24 % 0.0 mm 294.0 W/m2 CLR
18:23 27.2 °C 4.9 °C 1012.4 hPa Calm     24 % 0.0 mm 272.0 W/m2 CLR
18:27 27.2 °C 4.9 °C 1012.1 hPa ENE 1.6 km/h 1.6 km/h 24 % 0.0 mm 264.0 W/m2 CLR
18:32 27.2 °C 4.9 °C 1012.1 hPa NNE 6.4 km/h 6.4 km/h 24 % 0.0 mm 251.0 W/m2 CLR
18:37 26.7 °C 4.4 °C 1012.1 hPa Calm     24 % 0.0 mm 232.0 W/m2 CLR
18:42 26.7 °C 5.0 °C 1012.1 hPa Calm     25 % 0.0 mm 216.0 W/m2 CLR
18:47 26.7 °C 4.4 °C 1012.1 hPa Calm     24 % 0.0 mm 202.0 W/m2 CLR
18:52 26.1 °C 3.3 °C 1011.7 hPa Calm     23 % 0.0 mm 185.0 W/m2 CLR
18:57 25.6 °C 2.9 °C 1011.7 hPa Calm     23 % 0.0 mm 171.0 W/m2 CLR
19:02 25.6 °C 3.5 °C 1011.7 hPa Calm     24 % 0.0 mm 156.0 W/m2 CLR
19:07 25.0 °C 3.0 °C 1011.7 hPa Calm     24 % 0.0 mm 141.0 W/m2 CLR
19:12 24.4 °C 2.6 °C 1011.7 hPa Calm     24 % 0.0 mm 127.0 W/m2 CLR
19:18 23.9 °C 2.1 °C 1011.7 hPa Calm     24 % 0.0 mm 113.0 W/m2 CLR
19:23 23.9 °C 2.7 °C 1011.7 hPa Calm     25 % 0.0 mm 100.0 W/m2 CLR
19:28 23.3 °C 1.6 °C 1011.7 hPa Calm     24 % 0.0 mm 88.0 W/m2 CLR
19:33 22.8 °C 1.2 °C 1011.4 hPa North 1.9 km/h   24 % 0.0 mm 74.0 W/m2 FEW
19:38 22.2 °C 2.3 °C 1011.4 hPa NNE 5.6 km/h 5.6 km/h 27 % 0.0 mm 56.0 W/m2 SCT
19:43 22.2 °C 3.3 °C 1011.4 hPa NE 7.4 km/h 7.4 km/h 29 % 0.0 mm 49.0 W/m2 SCT
19:48 21.7 °C 3.3 °C 1011.4 hPa NE 5.6 km/h 5.6 km/h 30 % 0.0 mm 42.0 W/m2 BKN
19:53 21.7 °C 3.8 °C 1011.4 hPa NE 1.6 km/h   31 % 0.0 mm 35.0 W/m2 BKN
19:58 21.1 °C 4.2 °C 1011.4 hPa ENE 3.7 km/h 3.7 km/h 33 % 0.0 mm 26.0 W/m2 BKN
20:03 20.6 °C 4.1 °C 1011.4 hPa NE 1.6 km/h 3.1 km/h 34 % 0.0 mm 21.0 W/m2 BKN
20:08 20.6 °C 5.3 °C 1011.4 hPa ENE 3.7 km/h 3.7 km/h 37 % 0.0 mm 16.0 W/m2 BKN
20:13 20.0 °C 5.2 °C 1011.4 hPa East 3.7 km/h 3.7 km/h 38 % 0.0 mm 11.0 W/m2 BKN
20:18 20.0 °C 5.6 °C 1011.4 hPa Calm     39 % 0.0 mm 7.0 W/m2 BKN
20:23 19.4 °C 5.5 °C 1011.4 hPa East 6.4 km/h 6.4 km/h 40 % 0.0 mm 0.0 W/m2 OVC
20:28 19.4 °C 5.8 °C 1011.1 hPa ENE 5.6 km/h 5.6 km/h 41 % 0.0 mm 0.0 W/m2 OVC
20:33 19.4 °C 6.2 °C 1011.1 hPa Calm     42 % 0.0 mm 0.0 W/m2 CLR
20:38 18.9 °C 6.1 °C 1011.1 hPa East 9.3 km/h 9.3 km/h 43 % 0.0 mm 0.0 W/m2 CLR
20:43 18.9 °C 7.0 °C 1011.1 hPa Calm     46 % 0.0 mm 0.0 W/m2 CLR
20:48 18.9 °C 7.0 °C 1011.1 hPa Calm     46 % 0.0 mm 0.0 W/m2 CLR
20:53 18.9 °C 7.0 °C 1011.1 hPa ESE 1.9 km/h   46 % 0.0 mm 0.0 W/m2 CLR
20:58 18.9 °C 8.2 °C 1011.1 hPa East 14.8 km/h 14.8 km/h 50 % 0.0 mm 0.0 W/m2 CLR
21:03 18.9 °C 8.5 °C 1011.1 hPa ENE 7.4 km/h 7.4 km/h 51 % 0.0 mm 0.0 W/m2 CLR
21:08 18.9 °C 8.8 °C 1011.1 hPa East 12.9 km/h 12.9 km/h 52 % 0.0 mm 0.0 W/m2 CLR
21:13 18.9 °C 9.4 °C 1011.4 hPa ENE 13.0 km/h 13.0 km/h 54 % 0.0 mm 0.0 W/m2 CLR
21:18 18.3 °C 9.1 °C 1011.1 hPa East 11.3 km/h 11.3 km/h 55 % 0.0 mm 0.0 W/m2 CLR
21:23 18.3 °C 9.1 °C 1011.1 hPa Calm     55 % 0.0 mm 0.0 W/m2 CLR
21:28 18.3 °C 8.8 °C 1011.1 hPa Calm     54 % 0.0 mm 0.0 W/m2 CLR
21:33 18.3 °C 9.1 °C 1011.1 hPa Calm     55 % 0.0 mm 0.0 W/m2 CLR
21:38 18.9 °C 9.7 °C 1011.1 hPa Calm     55 % 0.0 mm 0.0 W/m2 CLR
21:43 18.9 °C 9.9 °C 1011.1 hPa Calm     56 % 0.0 mm 0.0 W/m2 CLR
21:48 18.3 °C 8.8 °C 1011.4 hPa Calm     54 % 0.0 mm 0.0 W/m2 CLR
21:53 18.3 °C 8.0 °C 1011.4 hPa Calm     51 % 0.0 mm 0.0 W/m2 CLR
21:58 17.8 °C 8.3 °C 1011.4 hPa Calm     54 % 0.0 mm 0.0 W/m2 CLR
22:04 18.3 °C 9.1 °C 1011.4 hPa Calm     55 % 0.0 mm 0.0 W/m2 CLR
22:09 18.3 °C 9.1 °C 1011.1 hPa Calm     55 % 0.0 mm 0.0 W/m2 CLR
22:14 18.9 °C 9.9 °C 1011.4 hPa Calm     56 % 0.0 mm 0.0 W/m2 CLR
22:19 18.3 °C 10.4 °C 1011.4 hPa Calm     60 % 0.0 mm 0.0 W/m2 CLR
22:24 18.3 °C 10.2 °C 1011.4 hPa Calm     59 % 0.0 mm 0.0 W/m2 CLR
22:29 18.3 °C 9.9 °C 1011.4 hPa Calm     58 % 0.0 mm 0.0 W/m2 CLR
22:34 18.3 °C 10.4 °C 1011.4 hPa Calm     60 % 0.0 mm 0.0 W/m2 CLR
22:39 17.8 °C 11.1 °C 1011.4 hPa Calm     65 % 0.0 mm 0.0 W/m2 CLR
22:44 17.2 °C 10.6 °C 1011.4 hPa Calm     65 % 0.0 mm 0.0 W/m2 CLR
22:49 17.2 °C 10.1 °C 1011.4 hPa NW 7.4 km/h 7.4 km/h 63 % 0.0 mm 0.0 W/m2 CLR
22:54 16.7 °C 10.1 °C 1011.4 hPa NW 5.6 km/h 5.6 km/h 65 % 0.0 mm 0.0 W/m2 CLR
22:59 16.1 °C 9.5 °C 1011.4 hPa Calm     65 % 0.0 mm 0.0 W/m2 CLR
23:04 16.1 °C 9.5 °C 1011.4 hPa Calm     65 % 0.0 mm 0.0 W/m2 CLR
23:09 16.1 °C 9.8 °C 1011.4 hPa Calm     66 % 0.0 mm 0.0 W/m2 CLR
23:14 15.6 °C 9.7 °C 1011.4 hPa Calm     68 % 0.0 mm 0.0 W/m2 CLR
23:19 15.6 °C 9.4 °C 1011.4 hPa Calm     67 % 0.0 mm 0.0 W/m2 CLR
23:24 15.6 °C 9.2 °C 1011.1 hPa Calm     66 % 0.0 mm 0.0 W/m2 CLR
23:29 15.6 °C 9.4 °C 1011.1 hPa Calm     67 % 0.0 mm 0.0 W/m2 CLR
23:34 15.6 °C 9.7 °C 1011.1 hPa Calm     68 % 0.0 mm 0.0 W/m2 CLR
23:40 15.6 °C 9.7 °C 1010.7 hPa Calm     68 % 0.0 mm 0.0 W/m2 CLR
23:45 15.6 °C 9.9 °C 1010.7 hPa Calm     69 % 0.0 mm 0.0 W/m2 CLR
23:50 15.6 °C 10.3 °C 1010.7 hPa Calm     71 % 0.0 mm 0.0 W/m2 CLR
23:55 15.0 °C 10.2 °C 1010.7 hPa Calm   0.2 km/h 73 % 0.0 mm 0.0 W/m2 CLR
Lo Temps de Massalio
Compliments of Weather Underground - 1.25 mb